createdAt,value
2022-10-30T00:01:46.721Z,23.31
2022-10-30T00:06:49.504Z,23.29
2022-10-30T00:11:53.536Z,23.29
2022-10-30T00:16:56.340Z,23.24
2022-10-30T00:27:02.064Z,23.18
2022-10-30T00:32:04.745Z,23.09
2022-10-30T00:37:07.393Z,23.07
2022-10-30T00:42:13.245Z,23.00
2022-10-30T00:47:19.695Z,22.92
2022-10-30T00:52:22.622Z,22.87
2022-10-30T00:57:26.644Z,22.86
2022-10-30T01:02:29.431Z,22.79
2022-10-30T01:07:32.208Z,22.75
2022-10-30T01:12:36.189Z,22.74
2022-10-30T01:17:47.229Z,22.70
2022-10-30T01:22:55.747Z,22.68
2022-10-30T01:28:03.483Z,22.66
2022-10-30T01:33:12.788Z,22.63
2022-10-30T01:38:17.776Z,22.61
2022-10-30T01:43:21.929Z,22.60
2022-10-30T01:48:36.695Z,22.57
2022-10-30T01:53:45.507Z,22.54
2022-10-30T01:58:52.613Z,22.52
2022-10-30T02:03:56.755Z,22.49
2022-10-30T02:08:59.525Z,22.47
2022-10-30T02:14:05.419Z,22.45
2022-10-30T02:19:08.183Z,22.43
2022-10-30T02:24:12.163Z,22.39
2022-10-30T02:29:14.907Z,22.36
2022-10-30T02:34:17.887Z,22.35
2022-10-30T02:39:22.248Z,22.31
2022-10-30T02:44:24.933Z,22.27
2022-10-30T02:49:27.641Z,22.28
2022-10-30T02:54:31.678Z,22.23
2022-10-30T02:59:34.506Z,22.20
2022-10-30T03:04:37.210Z,22.18
2022-10-30T03:09:41.215Z,22.16
2022-10-30T03:14:44.070Z,22.15
2022-10-30T03:19:47.044Z,22.14
2022-10-30T03:24:51.572Z,22.13
2022-10-30T03:29:54.462Z,22.09
2022-10-30T03:34:57.234Z,22.07
2022-10-30T03:40:01.239Z,22.07
2022-10-30T03:45:03.904Z,22.05
2022-10-30T03:50:07.692Z,22.03
2022-10-30T03:55:11.813Z,22.01
2022-10-30T04:00:17.697Z,22.01
2022-10-30T04:05:32.393Z,22.00
2022-10-30T04:10:36.667Z,21.98
2022-10-30T04:15:44.572Z,21.95
2022-10-30T04:20:48.259Z,21.92
2022-10-30T04:25:52.797Z,21.90
2022-10-30T04:30:55.545Z,21.92
2022-10-30T04:35:58.329Z,21.90
2022-10-30T04:41:02.576Z,21.89
2022-10-30T04:46:21.070Z,21.85
2022-10-30T04:51:24.303Z,21.87
2022-10-30T04:56:28.846Z,21.84
2022-10-30T05:01:31.697Z,21.81
2022-10-30T05:06:34.856Z,21.79
2022-10-30T05:11:39.302Z,21.79
2022-10-30T05:16:42.443Z,21.75
2022-10-30T05:21:45.302Z,21.73
2022-10-30T05:26:51.277Z,21.70
2022-10-30T05:31:53.978Z,21.66
2022-10-30T05:37:11.587Z,21.77
2022-10-30T05:42:15.856Z,21.83
2022-10-30T05:47:20.888Z,21.88
2022-10-30T05:52:29.148Z,21.95
2022-10-30T05:57:34.265Z,22.01
2022-10-30T06:02:37.391Z,22.07
2022-10-30T06:07:40.198Z,22.10
2022-10-30T06:12:44.500Z,22.12
2022-10-30T06:18:10.433Z,22.17
2022-10-30T06:23:25.100Z,22.21
2022-10-30T06:28:37.598Z,22.27
2022-10-30T06:33:40.577Z,22.30
2022-10-30T06:38:45.100Z,22.34
2022-10-30T06:43:52.703Z,22.39
2022-10-30T06:48:58.397Z,22.42
2022-10-30T06:54:02.279Z,22.45
2022-10-30T06:59:38.142Z,22.48
2022-10-30T07:04:58.559Z,22.53
2022-10-30T07:10:01.582Z,22.55
2022-10-30T07:15:24.119Z,22.58
2022-10-30T07:20:36.559Z,22.64
2022-10-30T07:25:39.943Z,22.66
2022-10-30T07:30:56.645Z,22.69
2022-10-30T07:36:34.904Z,22.75
2022-10-30T07:41:40.331Z,22.79
2022-10-30T07:47:10.315Z,22.81
2022-10-30T07:52:39.245Z,22.83
2022-10-30T07:57:43.640Z,22.87
2022-10-30T08:03:06.398Z,22.93
2022-10-30T08:08:13.923Z,22.89
2022-10-30T08:13:18.305Z,22.46
2022-10-30T08:18:22.860Z,22.15
2022-10-30T08:23:32.371Z,22.01
2022-10-30T08:28:41.113Z,21.95
2022-10-30T08:33:47.498Z,21.98
2022-10-30T08:39:03.955Z,21.87
2022-10-30T08:44:25.178Z,21.74
2022-10-30T08:49:47.690Z,21.66
2022-10-30T08:54:54.304Z,21.61
2022-10-30T08:59:59.278Z,21.57
2022-10-30T09:05:28.850Z,21.45
2022-10-30T09:10:55.487Z,21.40
2022-10-30T09:16:00.661Z,21.44
2022-10-30T09:21:06.943Z,21.46
2022-10-30T09:26:20.994Z,21.34
2022-10-30T09:31:36.063Z,21.48
2022-10-30T09:36:43.833Z,21.42
2022-10-30T09:42:18.974Z,21.41
2022-10-30T09:47:30.001Z,21.48
2022-10-30T09:52:35.952Z,21.56
2022-10-30T09:57:42.845Z,21.59
2022-10-30T10:02:54.769Z,21.63
2022-10-30T10:08:02.030Z,21.76
2022-10-30T10:13:30.108Z,22.02
2022-10-30T10:18:34.397Z,22.19
2022-10-30T10:23:42.656Z,22.32
2022-10-30T10:28:51.477Z,22.43
2022-10-30T10:34:00.706Z,22.52
2022-10-30T10:39:16.628Z,22.58
2022-10-30T10:44:26.235Z,22.65
2022-10-30T10:49:40.022Z,22.67
2022-10-30T10:54:45.740Z,22.74
2022-10-30T10:59:49.882Z,22.75
2022-10-30T11:04:53.747Z,22.81
2022-10-30T11:09:58.315Z,22.86
2022-10-30T11:15:14.590Z,22.94
2022-10-30T11:20:18.442Z,22.99
2022-10-30T11:25:26.879Z,23.07
2022-10-30T11:30:33.108Z,23.14
2022-10-30T11:35:36.444Z,23.24
2022-10-30T11:40:41.327Z,23.29
2022-10-30T11:45:43.927Z,23.38
2022-10-30T11:50:46.754Z,23.47
2022-10-30T11:55:50.733Z,23.50
2022-10-30T12:01:00.958Z,23.62
2022-10-30T12:06:08.726Z,23.69
2022-10-30T12:11:12.740Z,23.70
2022-10-30T12:16:16.678Z,23.65
2022-10-30T12:21:19.829Z,23.76
2022-10-30T12:26:23.790Z,23.92
2022-10-30T12:31:30.160Z,23.93
2022-10-30T12:36:36.050Z,23.90
2022-10-30T12:41:43.281Z,23.88
2022-10-30T12:46:48.732Z,23.80
2022-10-30T12:51:53.943Z,23.85
2022-10-30T12:57:01.825Z,23.81
2022-10-30T13:02:13.260Z,23.81
2022-10-30T13:07:18.951Z,23.79
2022-10-30T13:12:23.933Z,23.79
2022-10-30T13:17:28.518Z,23.86
2022-10-30T13:22:33.851Z,23.94
2022-10-30T13:27:41.820Z,23.99
2022-10-30T13:32:52.629Z,23.98
2022-10-30T13:37:58.307Z,23.92
2022-10-30T13:43:12.802Z,23.85
2022-10-30T13:48:19.627Z,23.91
2022-10-30T13:53:24.280Z,23.91
2022-10-30T13:58:31.212Z,23.90
2022-10-30T14:03:46.749Z,23.89
2022-10-30T14:08:52.624Z,23.86
2022-10-30T14:13:57.370Z,23.83
2022-10-30T14:19:00.772Z,23.86
2022-10-30T14:24:04.765Z,23.85
2022-10-30T14:29:38.385Z,23.82
2022-10-30T14:34:41.976Z,23.78
2022-10-30T14:39:45.058Z,23.84
2022-10-30T14:45:02.090Z,23.85
2022-10-30T14:50:11.743Z,23.83
2022-10-30T14:55:34.584Z,23.81
2022-10-30T15:00:43.072Z,23.85
2022-10-30T15:05:49.812Z,23.85
2022-10-30T15:10:58.862Z,23.80
2022-10-30T15:16:04.062Z,23.76
2022-10-30T15:21:08.046Z,23.82
2022-10-30T15:26:21.243Z,23.68
2022-10-30T15:31:25.961Z,23.49
2022-10-30T15:36:30.702Z,23.42
2022-10-30T15:41:33.621Z,23.53
2022-10-30T15:46:37.824Z,23.59
2022-10-30T15:51:40.579Z,23.64
2022-10-30T15:57:08.347Z,23.67
2022-10-30T16:02:20.869Z,23.69
2022-10-30T16:07:24.482Z,23.69
2022-10-30T16:12:27.342Z,23.69
2022-10-30T16:17:31.356Z,23.68
2022-10-30T16:22:35.673Z,23.67
2022-10-30T16:27:44.155Z,23.75
2022-10-30T16:32:52.168Z,23.71
2022-10-30T16:37:55.193Z,23.72
2022-10-30T16:42:59.101Z,23.63
2022-10-30T16:48:09.166Z,23.74
2022-10-30T16:53:17.986Z,23.69
2022-10-30T16:58:20.766Z,23.65
2022-10-30T17:03:26.495Z,23.65
2022-10-30T17:08:37.452Z,23.67
2022-10-30T17:13:42.790Z,23.70
2022-10-30T17:18:47.093Z,23.74
2022-10-30T17:23:50.686Z,23.72
2022-10-30T17:28:53.453Z,23.72
2022-10-30T17:34:17.884Z,23.73
2022-10-30T17:39:20.742Z,23.74
2022-10-30T17:44:23.980Z,23.65
2022-10-30T17:49:29.458Z,23.67
2022-10-30T17:54:32.179Z,23.69
2022-10-30T17:59:37.056Z,23.69
2022-10-30T18:04:42.169Z,23.70
2022-10-30T18:09:45.128Z,23.72
2022-10-30T18:14:47.811Z,23.68
2022-10-30T18:19:51.951Z,23.72
2022-10-30T18:24:54.832Z,23.71
2022-10-30T18:29:57.709Z,23.73
2022-10-30T18:35:01.907Z,23.73
2022-10-30T18:40:05.290Z,23.74
2022-10-30T18:45:23.730Z,23.71
2022-10-30T18:50:28.053Z,23.73
2022-10-30T18:55:34.144Z,23.70
2022-10-30T19:00:58.189Z,23.71
2022-10-30T19:06:03.432Z,23.68
2022-10-30T19:11:06.376Z,23.69
2022-10-30T19:16:11.456Z,23.67
2022-10-30T19:21:16.961Z,23.62
2022-10-30T19:26:19.658Z,23.65
2022-10-30T19:31:22.364Z,23.62
2022-10-30T19:36:31.150Z,23.62
2022-10-30T19:41:33.798Z,23.63
2022-10-30T19:46:36.899Z,23.68
2022-10-30T19:51:40.990Z,23.65
2022-10-30T19:56:44.124Z,23.69
2022-10-30T20:01:46.935Z,23.67
2022-10-30T20:06:51.211Z,23.69
2022-10-30T20:11:53.797Z,23.70
2022-10-30T20:16:56.447Z,23.71
2022-10-30T20:22:00.488Z,23.69
2022-10-30T20:27:03.164Z,23.73
2022-10-30T20:32:06.570Z,23.69
2022-10-30T20:37:11.104Z,23.65
2022-10-30T20:42:13.794Z,23.67
2022-10-30T20:47:16.417Z,23.71
2022-10-30T20:52:20.463Z,23.67
2022-10-30T20:57:23.216Z,23.75
2022-10-30T21:02:26.074Z,23.71
2022-10-30T21:07:31.442Z,23.67
2022-10-30T21:12:36.345Z,23.70
2022-10-30T21:17:39.003Z,23.69
2022-10-30T21:22:43.151Z,23.74
2022-10-30T21:32:53.446Z,23.69
2022-10-30T21:37:57.435Z,23.69
2022-10-30T21:43:03.227Z,23.69
2022-10-30T21:48:07.758Z,23.68
2022-10-30T21:53:11.860Z,23.67
2022-10-30T21:58:14.517Z,23.70
2022-10-30T22:03:17.241Z,23.68
2022-10-30T22:08:21.413Z,23.76
2022-10-30T22:13:24.145Z,23.77
2022-10-30T22:18:26.838Z,23.76
2022-10-30T22:23:30.890Z,23.81
2022-10-30T22:28:33.943Z,23.83
2022-10-30T22:33:36.671Z,23.86
2022-10-30T22:38:40.640Z,23.82
2022-10-30T22:43:44.056Z,23.81
2022-10-30T22:48:46.731Z,23.83
2022-10-30T22:53:57.036Z,23.83
2022-10-30T22:59:01.460Z,23.85
2022-10-30T23:04:04.542Z,23.83
2022-10-30T23:09:10.057Z,23.82
2022-10-30T23:14:12.712Z,23.77
2022-10-30T23:19:15.390Z,23.72
2022-10-30T23:24:19.375Z,23.67
2022-10-30T23:29:21.991Z,23.60
2022-10-30T23:34:24.630Z,23.52
2022-10-30T23:39:29.298Z,23.45
2022-10-30T23:44:31.903Z,23.41
2022-10-30T23:49:34.592Z,23.35
2022-10-30T23:54:38.640Z,23.28
2022-10-30T23:59:41.279Z,23.28
